Flight Track Log - Related Links

Times and Time Zones

All times are in EDT time to prevent confusion due to time zone crossing. See the UAL822 flight status page for this flight to view local times or setup timezone preferences in your user account.

Time Position Orientation Groundspeed Altitude Reporting Facility
EDT Latitude Longitude Course Direction KTS MPH feet Rate Location/Type
Thu 12:42:14 PM 41.9500 -87.9000 90° East 156 180 1,900  Level Chicago TRACON
Thu 12:43:08 PM 41.9167 -87.8667 143° Southeast 163 188 4,000 1,824 Climbing Chicago TRACON
Thu 12:44:42 PM 41.8511 -87.7736 133° Southeast 241 277 6,400 2,346 Climbing Chicago Center
Thu 12:45:00 PM 41.9431 -87.2758 96° East  Level FlightAware Approximate
Thu 12:45:44 PM 41.8606 -87.6681 83° East 291 335 10,100  Level Chicago Center
Thu 12:46:00 PM 41.9333 -87.1201 90° East  Level FlightAware Approximate
Thu 12:46:46 PM 41.8772 -87.5553 79° East 311 358 12,400  Level Chicago Center
Thu 12:47:00 PM 41.9333 -86.9636 90° East  Level FlightAware Approximate
Thu 12:47:48 PM 41.8967 -87.4183 79° East 366 421 14,700  Level Chicago Center
Thu 12:48:50 PM 41.9197 -87.2428 80° East 396 456 17,800 2,640 Climbing Chicago Center
Thu 12:49:53 PM 41.9411 -87.0928 79° East 409 471 20,200 2,177 Climbing Chicago Center
Thu 12:50:54 PM 41.9467 -86.9328 87° East 428 493 22,300 1,951 Climbing Chicago Center
Thu 12:51:56 PM 41.9486 -86.7678 89° East 441 507 24,200 1,839 Climbing Chicago Center
Thu 12:52:58 PM 41.9517 -86.6017 89° East 456 525 26,100 1,694 Climbing Chicago Center
Thu 12:54:00 PM 41.9531 -86.4286 89° East 465 535 27,700 1,548 Climbing Chicago Center
Thu 12:55:02 PM 41.9503 -86.2075 91° East 488 562 29,300 1,488 Climbing Chicago Center
Thu 12:56:05 PM 41.9186 -86.0281 103° East 504 580 30,800 1,536 Climbing Chicago Center
Thu 12:57:07 PM 41.8839 -85.8483 104° East 501 577 32,500 1,500 Climbing Chicago Center
Thu 12:58:09 PM 41.8472 -85.6661 105° East 502 578 33,900 1,210 Climbing Chicago Center
Thu 12:59:11 PM 41.8100 -85.4817 105° East 506 582 35,000 532 Climbing Chicago Center
Thu 01:00:13 PM 41.7731 -85.2994 105° East 495 570 35,000  Level Chicago Center
Thu 01:01:15 PM 41.7336 -85.1111 106° East 515 593 35,000  Level Chicago Center
Thu 01:02:17 PM 41.6947 -84.9167 105° East 537 618 35,000  Level Chicago Center
Thu 01:03:19 PM 41.6625 -84.6822 100° East 535 616 35,000  Level Chicago Center
Thu 01:04:26 PM 41.6453 -84.4847 97° East 524 603 35,000  Level Cleveland Center
Thu 01:05:26 PM 41.5803 -84.3114 117° Southeast 524 603 35,000  Level Cleveland Center
Thu 01:06:26 PM 41.4964 -84.1264 121° Southeast 513 590 35,000  Level Cleveland Center
Thu 01:07:26 PM 41.4244 -83.9592 120° Southeast 518 596 35,000 150 Level Cleveland Center
Thu 01:08:26 PM 41.3542 -83.7894 119° Southeast 523 602 35,300 500 Climbing Cleveland Center
Thu 01:09:26 PM 41.2817 -83.6228 120° Southeast 523 602 36,000 247 Climbing Cleveland Center
Thu 01:11:16 PM 41.1531 -83.3197 119° Southeast 518 596 36,000  Level Indianapolis Center
Thu 01:12:18 PM 41.0792 -83.1539 121° Southeast 519 597 36,000  Level Indianapolis Center
Thu 01:13:20 PM 41.0078 -82.9872 120° Southeast 517 595 36,000  Level Indianapolis Center
Thu 01:14:22 PM 40.9347 -82.8233 121° Southeast 516 594 36,000  Level Indianapolis Center
Thu 01:15:24 PM 40.8608 -82.6586 121° Southeast 517 595 36,000 145 Level Indianapolis Center
Thu 01:16:26 PM 40.7889 -82.4953 120° Southeast 516 594 36,300 492 Climbing Indianapolis Center
Thu 01:17:26 PM 40.7025 -82.3086 121° Southeast 536 617 37,000 350 Climbing Cleveland Center
Thu 01:18:26 PM 40.6297 -82.1453 120° Southeast 531 611 37,000  Level Cleveland Center
Thu 01:19:26 PM 40.5547 -81.9822 121° Southeast 526 605 37,000 50 Level Cleveland Center
Thu 01:20:26 PM 40.4897 -81.8417 121° Southeast 521 600 37,100 50 Climbing Cleveland Center
Thu 01:21:26 PM 40.4164 -81.6767 120° Southeast 521 600 37,100 -50 Level Cleveland Center
Thu 01:22:26 PM 40.3425 -81.5200 122° Southeast 514 592 37,000 -100 Descending Cleveland Center
Thu 01:23:26 PM 40.2647 -81.3450 120° Southeast 514 592 36,900  Descending Cleveland Center
Thu 01:24:26 PM 40.1928 -81.1836 120° Southeast 514 592 37,000 50 Climbing Cleveland Center
Thu 01:25:26 PM 40.1183 -81.0256 122° Southeast 514 592 37,000  Level Cleveland Center
Thu 01:26:26 PM 40.0439 -80.8678 122° Southeast 514 592 37,000  Level Cleveland Center
Thu 01:27:26 PM 39.9669 -80.7078 122° Southeast 519 597 37,000 -100 Level Cleveland Center
Thu 01:28:26 PM 39.8919 -80.5506 122° Southeast 519 597 36,800 -600 Descending Cleveland Center
Thu 01:29:26 PM 39.8169 -80.3911 121° Southeast 519 597 35,800 -1,000 Descending Cleveland Center
Thu 01:30:26 PM 39.7414 -80.2375 123° Southeast 519 597 34,800 -1,000 Descending Cleveland Center
Thu 01:31:26 PM 39.6681 -80.0842 122° Southeast 519 597 33,800 -950 Descending Cleveland Center
Thu 01:32:26 PM 39.5964 -79.9283 121° Southeast 514 592 32,900 -2,130 Descending Cleveland Center
Thu 01:34:15 PM 39.5192 -79.6269 108° East 517 595 27,800 -2,130 Descending Washington Center
Thu 01:35:15 PM 39.4853 -79.4450 104° East 517 595 26,900 -1,000 Descending Washington Center
Thu 01:36:15 PM 39.4497 -79.2522 103° East 503 579 25,800 -1,664 Descending Washington Center
Thu 01:37:14 PM 39.4192 -79.0894 104° East 446 513 23,600 -2,118 Descending Washington Center
Thu 01:38:14 PM 39.3922 -78.9350 103° East 440 506 21,600 -2,500 Descending Washington Center
Thu 01:39:14 PM 39.3631 -78.7833 104° East 435 501 18,600 -2,650 Descending Washington Center
Thu 01:40:14 PM 39.3375 -78.6428 103° East 423 487 16,300 -2,350 Descending Washington Center
Thu 01:41:14 PM 39.3158 -78.5075 102° East 400 460 13,900 -1,950 Descending Washington Center
Thu 01:42:14 PM 39.2897 -78.3833 105° East 374 430 12,400 -1,300 Descending Washington Center
Thu 01:43:14 PM 39.2439 -78.2850 121° Southeast 342 394 11,300 -1,200 Descending Washington Center
Thu 01:44:14 PM 39.1939 -78.1894 124° Southeast 325 374 10,000 -1,300 Descending Washington Center
Thu 01:45:14 PM 39.1458 -78.1019 125° Southeast 313 360 8,700 -1,300 Descending Washington Center
Thu 01:46:14 PM 39.1017 -78.0150 123° Southeast 302 348 7,400 -850 Descending Washington Center
Thu 01:47:14 PM 39.0575 -77.9333 125° Southeast 290 334 7,000 -198 Descending Washington Center
Thu 01:48:15 PM 39.0172 -77.8597 125° Southeast 290 334 7,000 -100 Level Washington Center
Thu 01:49:14 PM 38.9728 -77.7731 123° Southeast 290 334 6,800 -341 Descending Washington Center
Thu 01:51:11 PM 38.9167 -77.6000 113° Southeast 274 315 6,000 -305 Descending Potomac TRACON
Thu 01:52:11 PM 38.8500 -77.5667 159° South 271 312 5,900 -1,200 Descending Potomac TRACON
Thu 01:53:11 PM 38.7667 -77.5667 180° South 264 304 3,600 -2,300 Descending Potomac TRACON

Login

Don't have an account? Register now (free) for customized features, flight alerts, and more!